Time;durP1;ratioP1;P1;durP2;ratioP2;P2;SDS_P1;SDS_P2;PMS_P1;PMS_P2;Temp;Humidity;BMP_temperature;BMP_pressure;BME280_temperature;BME280_humidity;BME280_pressure;Samples;Min_cycle;Max_cycle;Signal;HPM_P1;HPM_P2
2022/12/02 06:12:55;;;;;;;154.35;46.90;;;2.20;99.90;;;;;;7590541;19;20405;-71
2022/12/02 06:15:36;;;;;;;148.15;48.35;;;2.10;99.90;;;;;;7617065;19;20048;-72
2022/12/02 06:18:13;;;;;;;139.35;47.75;;;2.20;99.90;;;;;;7610390;19;20053;-72
2022/12/02 06:20:49;;;;;;;144.45;48.10;;;2.20;99.90;;;;;;7615082;19;20014;-71
2022/12/02 06:23:22;;;;;;;135.73;47.45;;;2.30;99.90;;;;;;7623298;19;20025;-71
2022/12/02 06:25:54;;;;;;;136.88;46.25;;;2.40;99.90;;;;;;7596293;19;20021;-73
2022/12/02 06:28:30;;;;;;;125.90;46.63;;;2.50;99.90;;;;;;7601672;19;20498;-71
2022/12/02 06:31:16;;;;;;;131.00;47.72;;;2.60;99.90;;;;;;7571709;19;20021;-71
2022/12/02 06:33:51;;;;;;;126.50;46.33;;;2.60;99.90;;;;;;7588315;19;20026;-72
2022/12/02 06:36:29;;;;;;;134.18;48.28;;;2.70;99.90;;;;;;7593598;19;20052;-72
2022/12/02 06:39:14;;;;;;;130.10;47.83;;;2.80;99.90;;;;;;7605548;19;20010;-72
2022/12/02 06:41:47;;;;;;;131.15;46.08;;;2.80;99.90;;;;;;7602744;19;20010;-72
2022/12/02 06:47:46;;;;;;;114.43;43.05;;;2.90;99.90;;;;;;7625520;19;20134;-72
2022/12/02 06:50:31;;;;;;;135.05;45.78;;;2.90;99.90;;;;;;7623952;19;20065;-72
2022/12/02 06:53:25;;;;;;;125.68;48.03;;;2.90;99.90;;;;;;7629306;19;20044;-72
2022/12/02 06:56:04;;;;;;;132.20;50.25;;;2.90;99.90;;;;;;7591215;19;20014;-71
2022/12/02 06:58:44;;;;;;;124.13;47.35;;;2.90;99.90;;;;;;7623689;19;20086;-72
2022/12/02 07:01:40;;;;;;;123.55;46.72;;;2.90;99.90;;;;;;7626810;19;20025;-71
2022/12/02 07:04:34;;;;;;;128.02;46.53;;;3.00;99.90;;;;;;7615756;19;20018;-71
2022/12/02 07:07:19;;;;;;;131.50;47.20;;;3.00;99.90;;;;;;7616329;19;20026;-71
2022/12/02 07:10:02;;;;;;;122.57;47.05;;;3.00;99.90;;;;;;7634548;19;20015;-71
2022/12/02 07:12:42;;;;;;;121.97;43.42;;;3.00;99.90;;;;;;7629414;19;20082;-72
2022/12/02 07:15:26;;;;;;;115.93;45.55;;;3.00;99.90;;;;;;7635543;19;20096;-70
2022/12/02 07:18:20;;;;;;;127.90;47.83;;;3.10;99.90;;;;;;7618661;19;20018;-71
2022/12/02 07:20:52;;;;;;;113.68;43.35;;;3.10;99.90;;;;;;7621540;19;20549;-70
2022/12/02 07:23:27;;;;;;;125.72;46.53;;;3.10;99.90;;;;;;7607513;19;20474;-70
2022/12/02 07:25:59;;;;;;;124.07;46.63;;;3.10;99.90;;;;;;7583925;19;21000;-73
2022/12/02 07:28:41;;;;;;;121.53;43.83;;;3.10;99.90;;;;;;7602360;19;20390;-73
2022/12/02 07:31:25;;;;;;;113.80;42.72;;;3.10;99.90;;;;;;7582802;19;20486;-70
2022/12/02 07:33:58;;;;;;;115.35;43.25;;;3.20;99.90;;;;;;7591699;19;20033;-70
2022/12/02 07:36:30;;;;;;;116.95;44.88;;;3.20;99.90;;;;;;7597719;19;20010;-73
2022/12/02 07:39:02;;;;;;;119.28;44.67;;;3.20;99.90;;;;;;7600476;19;20032;-71
2022/12/02 07:41:40;;;;;;;118.80;43.53;;;3.10;99.90;;;;;;7597708;19;20023;-70
2022/12/02 07:44:12;;;;;;;130.07;46.28;;;3.20;99.90;;;;;;7588880;19;20335;-73
2022/12/02 07:46:44;;;;;;;126.35;45.83;;;3.20;99.90;;;;;;7588031;19;20101;-72
2022/12/02 07:49:16;;;;;;;115.47;46.63;;;3.30;99.90;;;;;;7590798;19;20018;-74
2022/12/02 07:51:49;;;;;;;119.03;44.47;;;3.30;99.90;;;;;;7592325;19;20098;-73
2022/12/02 07:54:21;;;;;;;117.05;43.15;;;3.30;99.90;;;;;;7580222;19;20022;-70
2022/12/02 07:56:53;;;;;;;118.70;46.67;;;3.30;99.90;;;;;;7603417;19;20027;-70
2022/12/02 07:59:26;;;;;;;118.00;45.50;;;3.30;99.90;;;;;;7597947;19;20025;-73
2022/12/02 08:01:58;;;;;;;122.70;45.88;;;3.30;99.90;;;;;;7557172;19;20014;-72
2022/12/02 08:04:30;;;;;;;118.80;44.60;;;3.30;99.90;;;;;;7601269;19;23661;-71
2022/12/02 08:07:03;;;;;;;129.93;49.00;;;3.30;99.90;;;;;;7582388;19;20010;-73
2022/12/02 08:09:35;;;;;;;122.93;45.30;;;3.30;99.90;;;;;;7588793;19;20058;-73
2022/12/02 08:12:07;;;;;;;120.75;44.45;;;3.40;99.90;;;;;;7587298;19;20131;-71
2022/12/02 08:14:39;;;;;;;122.88;44.55;;;3.40;99.90;;;;;;7588061;19;20014;-72
2022/12/02 08:17:11;;;;;;;129.63;46.50;;;3.40;99.90;;;;;;7584202;19;20022;-71
2022/12/02 08:19:44;;;;;;;118.43;47.28;;;3.40;99.90;;;;;;7593610;19;20010;-71
2022/12/02 08:22:16;;;;;;;112.60;44.88;;;3.40;99.90;;;;;;7593778;19;20362;-72
2022/12/02 08:24:49;;;;;;;118.07;47.17;;;3.50;99.90;;;;;;7596965;19;20409;-72
2022/12/02 08:27:22;;;;;;;117.53;44.42;;;3.40;99.90;;;;;;7567145;19;20046;-73
2022/12/02 08:29:54;;;;;;;104.00;42.20;;;3.40;99.90;;;;;;7580029;19;20017;-70
2022/12/02 08:32:26;;;;;;;112.57;42.65;;;3.40;99.90;;;;;;7578579;19;20327;-73
2022/12/02 08:34:58;;;;;;;113.97;43.38;;;3.50;99.90;;;;;;7591320;19;20026;-71
2022/12/02 08:37:30;;;;;;;107.40;41.38;;;3.50;99.90;;;;;;7610556;19;20046;-71
2022/12/02 08:40:03;;;;;;;104.25;39.70;;;3.60;99.90;;;;;;7614415;19;20025;-71
2022/12/02 08:42:35;;;;;;;101.63;40.67;;;3.50;99.90;;;;;;7604001;19;20082;-71
2022/12/02 08:45:08;;;;;;;116.35;43.70;;;3.50;99.90;;;;;;7581478;19;20499;-74
2022/12/02 08:47:40;;;;;;;108.70;42.67;;;3.50;99.90;;;;;;7594297;19;20014;-71
2022/12/02 08:50:12;;;;;;;101.20;41.20;;;3.50;99.90;;;;;;7561011;19;20022;-71
2022/12/02 08:52:45;;;;;;;104.05;40.70;;;3.40;99.90;;;;;;7600259;19;20026;-73
2022/12/02 08:55:17;;;;;;;104.00;41.03;;;3.50;99.90;;;;;;7576695;19;20011;-71
2022/12/02 08:57:49;;;;;;;101.80;42.75;;;3.70;99.90;;;;;;7591100;19;20021;-71
2022/12/02 09:00:22;;;;;;;108.55;43.35;;;3.70;99.90;;;;;;7586295;19;20014;-71
2022/12/02 09:02:55;;;;;;;101.95;39.08;;;3.70;99.90;;;;;;7594710;19;20014;-71
2022/12/02 09:05:27;;;;;;;111.00;43.40;;;3.80;99.90;;;;;;7582425;19;20098;-71
2022/12/02 09:08:01;;;;;;;99.90;37.35;;;3.80;99.90;;;;;;7596072;19;20045;-71
2022/12/02 09:10:35;;;;;;;81.32;34.28;;;3.90;99.90;;;;;;7603202;19;20911;-73
2022/12/02 09:13:07;;;;;;;99.17;37.97;;;4.00;99.90;;;;;;7594294;19;20034;-73
2022/12/02 09:15:39;;;;;;;91.57;38.70;;;4.00;99.90;;;;;;7594321;19;20018;-72
2022/12/02 09:18:12;;;;;;;102.93;42.90;;;4.10;99.90;;;;;;7593032;19;20530;-71
2022/12/02 09:20:45;;;;;;;99.43;38.53;;;4.20;99.90;;;;;;7597987;19;20026;-72
2022/12/02 09:23:18;;;;;;;93.88;38.10;;;4.20;99.90;;;;;;7581805;19;20993;-71
2022/12/02 09:25:50;;;;;;;96.53;40.42;;;4.20;99.90;;;;;;7605498;19;20029;-71
2022/12/02 15:23:41;;;;;;;76.90;30.00;;;1.80;99.90;;;;;;7625128;19;20958;-76
2022/12/02 15:26:13;;;;;;;85.22;31.83;;;1.70;99.90;;;;;;7623347;19;20569;-76
2022/12/02 15:28:45;;;;;;;76.32;30.63;;;1.80;99.90;;;;;;7628925;19;20029;-76
2022/12/02 15:31:17;;;;;;;69.43;27.38;;;1.80;99.90;;;;;;7633276;19;20022;-77
2022/12/02 15:33:50;;;;;;;65.72;27.50;;;1.90;99.90;;;;;;7623959;19;20026;-76
2022/12/02 15:36:22;;;;;;;64.93;28.13;;;2.00;99.90;;;;;;7636017;19;20044;-74
2022/12/02 15:38:54;;;;;;;64.80;26.50;;;2.00;99.90;;;;;;7629905;19;20014;-74
2022/12/02 15:41:26;;;;;;;56.50;24.92;;;2.10;99.90;;;;;;7632460;19;22115;-76
2022/12/02 15:43:58;;;;;;;63.53;25.75;;;2.10;99.90;;;;;;7600641;19;20010;-75
2022/12/02 15:46:30;;;;;;;53.97;24.40;;;2.10;99.90;;;;;;7608910;19;20029;-75
2022/12/02 15:49:03;;;;;;;61.70;28.33;;;2.20;99.90;;;;;;7617842;19;20018;-75
2022/12/02 15:51:35;;;;;;;55.10;26.42;;;2.20;99.90;;;;;;7631949;19;20118;-75
2022/12/02 15:54:07;;;;;;;54.15;25.38;;;2.30;99.90;;;;;;7629274;19;20488;-76
2022/12/02 15:56:39;;;;;;;57.72;26.10;;;2.30;99.90;;;;;;7612159;19;20034;-74
2022/12/02 15:59:11;;;;;;;64.05;27.80;;;2.40;99.90;;;;;;7596059;19;20055;-76
2022/12/02 16:01:43;;;;;;;62.30;27.52;;;2.40;99.90;;;;;;7609261;19;20029;-76
2022/12/02 16:04:15;;;;;;;62.60;26.55;;;2.40;99.90;;;;;;7608128;19;20014;-75
2022/12/02 16:06:47;;;;;;;62.55;26.30;;;2.40;99.90;;;;;;7595445;19;20029;-77
2022/12/02 16:09:19;;;;;;;57.00;24.80;;;2.40;99.90;;;;;;7591377;19;20022;-77
2022/12/02 16:11:52;;;;;;;62.95;27.40;;;2.40;99.90;;;;;;7590518;19;20014;-76
2022/12/02 16:14:24;;;;;;;66.88;29.00;;;2.40;99.90;;;;;;7583538;19;20014;-75
2022/12/02 16:16:56;;;;;;;61.53;27.50;;;2.50;99.90;;;;;;7578601;19;20029;-75
2022/12/02 16:19:28;;;;;;;64.10;27.13;;;2.50;99.90;;;;;;7579094;19;20014;-78
2022/12/02 16:22:00;;;;;;;68.93;29.35;;;2.50;99.90;;;;;;7593653;19;20460;-76
2022/12/02 16:24:32;;;;;;;67.07;28.83;;;2.50;99.90;;;;;;7594870;19;20128;-76
2022/12/02 16:27:05;;;;;;;66.85;27.65;;;2.50;99.90;;;;;;7594581;19;20017;-76
2022/12/02 16:29:37;;;;;;;76.07;31.65;;;2.50;99.90;;;;;;7605014;19;20014;-77
2022/12/02 16:32:09;;;;;;;64.70;26.85;;;2.50;99.90;;;;;;7606702;19;20022;-75
2022/12/02 16:34:49;;;;;;;61.17;27.90;;;2.60;99.90;;;;;;7585120;19;20029;-76
2022/12/02 16:37:21;;;;;;;68.68;29.25;;;2.60;99.90;;;;;;7582363;19;20018;-77
2022/12/02 16:39:53;;;;;;;66.28;27.40;;;2.60;99.90;;;;;;7588878;19;20014;-77
2022/12/02 16:42:26;;;;;;;72.35;29.48;;;2.60;99.90;;;;;;7588652;19;20006;-76
2022/12/02 16:44:58;;;;;;;72.72;30.10;;;2.60;99.90;;;;;;7597726;19;20034;-76
2022/12/02 16:47:30;;;;;;;83.55;37.90;;;2.60;99.90;;;;;;7566686;19;20021;-77
2022/12/02 16:50:03;;;;;;;71.43;29.85;;;2.70;99.90;;;;;;7583775;19;20271;-77
2022/12/02 16:52:35;;;;;;;59.15;26.90;;;2.60;99.90;;;;;;7599039;19;20037;-76
2022/12/02 16:55:07;;;;;;;63.85;28.13;;;2.60;99.90;;;;;;7586012;19;20033;-75
2022/12/02 16:57:39;;;;;;;74.00;29.25;;;2.60;99.90;;;;;;7567224;19;20015;-76
2022/12/02 17:00:12;;;;;;;65.75;27.85;;;2.60;99.90;;;;;;7597579;19;20029;-76
2022/12/02 17:02:44;;;;;;;68.68;30.30;;;2.60;99.90;;;;;;7568541;19;20839;-77
2022/12/02 17:05:17;;;;;;;79.80;31.30;;;2.60;99.90;;;;;;7594539;19;20018;-76
2022/12/02 17:07:50;;;;;;;61.60;29.38;;;2.50;99.90;;;;;;7587107;19;20110;-76
2022/12/02 17:10:22;;;;;;;67.05;28.35;;;2.50;99.90;;;;;;7582591;19;21036;-76
2022/12/02 17:12:54;;;;;;;62.00;30.13;;;2.50;99.90;;;;;;7598550;19;20014;-76
2022/12/02 17:15:27;;;;;;;65.20;28.60;;;2.50;99.90;;;;;;7587504;19;21092;-76
2022/12/02 17:17:59;;;;;;;66.05;28.52;;;2.50;99.90;;;;;;7584646;19;20071;-77
2022/12/02 17:20:31;;;;;;;69.57;29.98;;;2.50;99.90;;;;;;7591992;19;20014;-76
2022/12/02 17:23:04;;;;;;;69.03;30.08;;;2.50;99.90;;;;;;7602802;19;20015;-76
2022/12/02 17:25:36;;;;;;;64.85;30.67;;;2.40;99.90;;;;;;7612279;19;20026;-76
2022/12/02 17:28:09;;;;;;;65.97;28.70;;;2.50;99.90;;;;;;7605085;19;20102;-75
2022/12/02 17:30:41;;;;;;;68.70;30.70;;;2.50;99.90;;;;;;7588692;19;20014;-75
2022/12/02 17:33:13;;;;;;;70.93;30.85;;;2.50;99.90;;;;;;7614124;19;20372;-75
2022/12/02 17:35:45;;;;;;;72.88;30.80;;;2.50;99.90;;;;;;7606487;19;20014;-76
2022/12/02 17:38:17;;;;;;;73.03;30.45;;;2.40;99.90;;;;;;7615290;19;20019;-74
2022/12/02 17:41:08;;;;;;;66.22;29.23;;;2.50;99.90;;;;;;7598771;19;20018;-75
2022/12/02 17:43:41;;;;;;;70.53;30.05;;;2.50;99.90;;;;;;7564752;19;20014;-75
2022/12/02 17:46:13;;;;;;;64.22;28.98;;;2.40;99.90;;;;;;7560342;19;20018;-75
2022/12/02 17:48:47;;;;;;;69.70;29.75;;;2.40;99.90;;;;;;7575240;19;21897;-76
2022/12/02 17:51:19;;;;;;;80.70;32.03;;;2.40;99.90;;;;;;7597178;19;20010;-75
2022/12/02 17:53:51;;;;;;;69.97;30.77;;;2.40;99.90;;;;;;7596671;19;20050;-75
2022/12/02 17:56:23;;;;;;;62.88;28.33;;;2.40;99.90;;;;;;7600652;19;20151;-77
2022/12/02 17:58:55;;;;;;;69.88;29.05;;;2.40;99.90;;;;;;7596495;19;20082;-75
2022/12/02 18:01:27;;;;;;;73.60;30.52;;;2.40;99.90;;;;;;7573189;19;20767;-77
2022/12/02 18:04:00;;;;;;;70.70;29.67;;;2.40;99.90;;;;;;7565528;19;20022;-76
2022/12/02 18:06:33;;;;;;;69.57;29.95;;;2.30;99.90;;;;;;7590551;19;20013;-77
2022/12/02 18:09:06;;;;;;;;;;;2.30;99.90;;;;;;7569574;19;20022;-75
2022/12/02 18:11:38;;;;;;;74.55;31.40;;;2.30;99.90;;;;;;7589727;19;19930;-77
2022/12/02 18:14:10;;;;;;;80.80;32.58;;;2.30;99.90;;;;;;7591474;19;20341;-77
2022/12/02 18:16:42;;;;;;;71.55;29.38;;;2.30;99.90;;;;;;7543148;19;20614;-77
2022/12/02 18:19:14;;;;;;;63.17;27.17;;;2.20;99.90;;;;;;6551458;19;10000479;-77
2022/12/02 18:21:46;;;;;;;64.70;27.55;;;2.20;99.90;;;;;;7573350;19;20026;-77
2022/12/02 18:24:18;;;;;;;75.68;29.63;;;2.20;99.90;;;;;;7576421;19;20015;-77
2022/12/02 18:26:50;;;;;;;70.45;27.80;;;2.20;99.90;;;;;;7578811;19;20022;-77
2022/12/02 18:29:22;;;;;;;69.95;28.55;;;2.20;99.90;;;;;;7579632;19;20014;-77
2022/12/02 18:31:54;;;;;;;68.13;27.40;;;2.20;99.90;;;;;;7576409;19;20018;-77
2022/12/02 18:34:26;;;;;;;69.03;29.00;;;2.20;99.90;;;;;;7530718;19;20057;-75
2022/12/02 18:36:58;;;;;;;61.35;27.15;;;2.20;99.90;;;;;;7552741;19;20010;-75
2022/12/02 18:39:30;;;;;;;61.90;27.70;;;2.20;99.90;;;;;;7551364;19;20010;-77
2022/12/02 18:42:03;;;;;;;66.68;27.15;;;2.20;99.90;;;;;;7583500;19;20017;-77
2022/12/02 18:44:35;;;;;;;69.88;27.77;;;2.20;99.90;;;;;;7576585;19;20514;-76
2022/12/02 18:47:07;;;;;;;72.40;29.85;;;2.20;99.90;;;;;;7550525;19;20014;-75
2022/12/02 18:49:39;;;;;;;75.07;30.45;;;2.10;99.90;;;;;;7563729;19;20010;-75
2022/12/02 18:52:13;;;;;;;79.10;30.88;;;2.20;99.90;;;;;;7549098;19;20336;-75
2022/12/02 18:54:45;;;;;;;82.50;31.42;;;2.20;99.90;;;;;;7564904;19;20022;-75
2022/12/02 18:57:26;;;;;;;62.38;29.38;;;2.20;99.90;;;;;;7543107;19;20014;-75
2022/12/02 18:59:58;;;;;;;72.50;30.20;;;2.10;99.90;;;;;;7527053;19;20059;-76
2022/12/02 19:02:30;;;;;;;82.53;33.10;;;2.20;99.90;;;;;;7568475;19;20380;-76
2022/12/02 19:05:05;;;;;;;76.80;32.05;;;2.20;99.90;;;;;;7573316;19;21416;-74
2022/12/02 19:07:37;;;;;;;71.70;29.98;;;2.10;99.90;;;;;;7549841;19;20491;-76
2022/12/02 19:10:12;;;;;;;75.35;30.98;;;2.10;99.90;;;;;;7565806;19;20014;-74
2022/12/02 19:12:45;;;;;;;102.03;34.35;;;2.10;99.90;;;;;;7554420;19;20086;-76
2022/12/02 19:15:17;;;;;;;71.85;29.17;;;2.10;99.90;;;;;;7564734;19;20923;-74
2022/12/02 19:17:49;;;;;;;73.18;28.90;;;2.10;99.90;;;;;;7540333;19;20011;-74
2022/12/02 19:20:21;;;;;;;82.88;31.67;;;2.20;99.90;;;;;;7558717;19;20441;-75
2022/12/02 19:22:53;;;;;;;76.43;30.75;;;2.10;99.90;;;;;;7558383;19;20074;-74
2022/12/02 19:25:27;;;;;;;77.70;30.55;;;2.20;99.90;;;;;;7573986;19;20038;-77
2022/12/02 19:28:00;;;;;;;76.78;30.58;;;2.20;99.90;;;;;;7569522;19;20016;-75
2022/12/02 19:30:32;;;;;;;86.38;31.02;;;2.20;99.90;;;;;;7576994;19;20018;-75
2022/12/02 19:33:04;;;;;;;82.67;31.30;;;2.20;99.90;;;;;;7552009;19;20467;-76
2022/12/02 19:35:36;;;;;;;73.05;29.98;;;2.20;99.90;;;;;;7557967;19;20011;-75
2022/12/02 19:38:09;;;;;;;83.03;30.20;;;2.20;99.90;;;;;;7561245;19;20437;-75
2022/12/02 19:40:49;;;;;;;77.72;30.02;;;2.20;99.90;;;;;;7551573;19;20145;-75
2022/12/02 19:43:21;;;;;;;89.85;32.47;;;2.20;99.90;;;;;;7541967;19;20017;-76
2022/12/02 19:45:53;;;;;;;86.32;32.55;;;2.20;99.90;;;;;;7546938;19;20192;-76
2022/12/02 19:48:26;;;;;;;91.80;33.55;;;2.20;99.90;;;;;;7517343;19;20033;-75
2022/12/02 19:50:58;;;;;;;92.50;34.15;;;2.20;99.90;;;;;;7537109;19;20652;-76
2022/12/02 19:53:31;;;;;;;99.45;34.05;;;2.20;99.90;;;;;;7553137;19;20018;-77
2022/12/02 19:56:04;;;;;;;91.55;32.17;;;2.30;99.90;;;;;;7556674;19;20018;-73
2022/12/02 19:58:36;;;;;;;85.45;33.03;;;2.30;99.90;;;;;;7544458;19;20018;-76
2022/12/02 20:01:08;;;;;;;89.32;33.40;;;2.30;99.90;;;;;;7528571;19;20017;-77
2022/12/02 20:03:40;;;;;;;88.80;32.28;;;2.30;99.90;;;;;;7569107;19;20014;-76
2022/12/02 20:06:13;;;;;;;110.85;35.67;;;2.20;99.90;;;;;;7577009;19;20014;-76
2022/12/02 20:08:45;;;;;;;90.80;33.72;;;2.30;99.90;;;;;;7558867;19;20018;-76
2022/12/02 20:11:17;;;;;;;95.32;33.95;;;2.30;99.90;;;;;;7565665;19;20092;-77
2022/12/02 20:13:50;;;;;;;103.97;35.65;;;2.30;99.90;;;;;;7560613;19;20015;-76
2022/12/02 20:16:22;;;;;;;95.83;33.67;;;2.30;99.90;;;;;;7585195;19;20026;-76
2022/12/02 20:18:54;;;;;;;84.25;30.40;;;2.30;99.90;;;;;;7562626;19;20937;-74
2022/12/02 20:21:26;;;;;;;107.45;36.13;;;2.20;99.90;;;;;;7561897;19;20018;-74
2022/12/02 20:23:59;;;;;;;96.57;33.55;;;2.20;99.90;;;;;;7569909;19;20018;-77
2022/12/02 20:26:31;;;;;;;110.65;36.25;;;2.20;99.90;;;;;;7580402;19;20025;-77
2022/12/02 20:29:03;;;;;;;100.78;33.85;;;2.20;99.90;;;;;;7585304;19;20018;-78
2022/12/02 20:31:35;;;;;;;107.75;35.05;;;2.20;99.90;;;;;;7590615;19;20025;-76
2022/12/02 20:34:07;;;;;;;96.45;33.13;;;2.20;99.90;;;;;;7560209;19;20367;-77
2022/12/02 20:36:39;;;;;;;106.43;36.72;;;2.20;99.90;;;;;;7561017;19;20610;-75
2022/12/02 20:39:13;;;;;;;106.50;34.90;;;2.30;99.90;;;;;;7576589;19;20661;-76
2022/12/02 20:41:45;;;;;;;83.95;32.47;;;2.30;99.90;;;;;;7514443;19;20020;-74
2022/12/02 20:44:19;;;;;;;95.35;34.55;;;2.30;99.90;;;;;;7565952;19;20034;-74
2022/12/02 20:46:51;;;;;;;104.63;37.63;;;2.30;99.90;;;;;;7579712;19;20011;-75
2022/12/02 20:49:23;;;;;;;98.80;32.97;;;2.30;99.90;;;;;;7586856;19;20018;-75
2022/12/02 20:51:55;;;;;;;110.72;36.03;;;2.30;99.90;;;;;;7575246;19;21129;-77
2022/12/02 20:54:28;;;;;;;84.20;32.67;;;2.30;99.90;;;;;;7578166;19;20097;-76
2022/12/02 20:57:00;;;;;;;108.60;36.90;;;2.30;99.90;;;;;;7568664;19;20019;-76
2022/12/02 20:59:32;;;;;;;101.13;36.53;;;2.30;99.90;;;;;;7582634;19;20106;-75
2022/12/02 21:02:05;;;;;;;94.90;35.35;;;2.30;99.90;;;;;;7585353;19;20022;-75
2022/12/02 21:04:37;;;;;;;102.47;36.63;;;2.30;99.90;;;;;;7593095;19;20119;-76
2022/12/02 21:07:09;;;;;;;100.05;36.20;;;2.30;99.90;;;;;;7591012;19;20042;-76
2022/12/02 21:09:42;;;;;;;100.95;36.47;;;2.30;99.90;;;;;;7594751;19;20012;-76
2022/12/02 21:12:17;;;;;;;100.10;36.55;;;2.40;99.90;;;;;;7572570;19;20019;-76
2022/12/02 21:14:49;;;;;;;107.15;37.28;;;2.40;99.90;;;;;;7566080;19;20512;-75
2022/12/02 21:17:21;;;;;;;100.22;36.05;;;2.40;99.90;;;;;;7594661;19;20020;-77
2022/12/02 21:19:53;;;;;;;98.25;36.30;;;2.40;99.90;;;;;;7604800;19;20015;-76
2022/12/02 21:22:26;;;;;;;104.05;36.83;;;2.50;99.90;;;;;;7606257;19;20027;-76
2022/12/02 21:24:58;;;;;;;107.70;37.05;;;2.50;99.90;;;;;;7592201;19;20017;-77
2022/12/02 21:27:30;;;;;;;95.43;35.88;;;2.50;99.90;;;;;;7561719;19;20019;-76
2022/12/02 21:30:05;;;;;;;99.50;36.13;;;2.50;99.90;;;;;;7583604;19;20011;-77
2022/12/02 21:32:37;;;;;;;106.97;36.70;;;2.50;99.90;;;;;;7573637;19;20078;-75
2022/12/02 21:35:09;;;;;;;108.88;36.85;;;2.50;99.90;;;;;;7583092;19;20585;-75
2022/12/02 21:37:41;;;;;;;109.57;37.35;;;2.50;99.90;;;;;;7584403;19;20019;-76
2022/12/02 21:40:14;;;;;;;103.75;37.58;;;2.50;99.90;;;;;;7546380;19;20021;-75
2022/12/02 21:42:47;;;;;;;109.07;36.40;;;2.50;99.90;;;;;;7567006;19;20089;-77
2022/12/02 21:45:19;;;;;;;104.93;37.73;;;2.50;99.90;;;;;;7584806;19;20068;-75
2022/12/02 21:47:52;;;;;;;106.80;35.83;;;2.50;99.90;;;;;;7590214;19;20310;-75
2022/12/02 21:50:25;;;;;;;100.32;33.00;;;2.50;99.90;;;;;;7596199;19;20011;-76
2022/12/02 21:52:57;;;;;;;101.75;35.85;;;2.50;99.90;;;;;;7592614;19;20021;-77
2022/12/02 21:55:30;;;;;;;115.88;36.85;;;2.50;99.90;;;;;;7608673;19;20026;-75
